Webcam

2016/12/10 19:50 EBBR 101950Z 22011KT 7000 NSC 09/07 Q1021 NOSIG

Webcam image

--- Refresh now ---